Time;durP1;ratioP1;P1;durP2;ratioP2;P2;SDS_P1;SDS_P2;PMS_P1;PMS_P2;Temp;Humidity;BMP_temperature;BMP_pressure;BME280_temperature;BME280_humidity;BME280_pressure;Samples;Min_cycle;Max_cycle;Signal;HPM_P1;HPM_P2
2021/05/12 00:01:03;;;;;;;12.88;3.55;;;10.40;99.90;;;;;;4954273;29;20030;-86
2021/05/12 00:03:29;;;;;;;6.97;3.50;;;10.40;99.90;;;;;;4953085;29;20034;-87
2021/05/12 00:05:54;;;;;;;14.85;3.72;;;10.40;99.90;;;;;;4953111;28;20093;-87
2021/05/12 00:08:20;;;;;;;8.98;3.33;;;10.40;99.90;;;;;;4952845;29;20106;-87
2021/05/12 00:10:46;;;;;;;10.13;3.40;;;10.40;99.90;;;;;;4952967;29;20042;-87
2021/05/12 00:13:11;;;;;;;10.45;3.78;;;10.40;99.90;;;;;;4952917;28;20027;-87
2021/05/12 00:15:37;;;;;;;14.02;3.40;;;10.40;99.90;;;;;;4953083;28;20122;-86
2021/05/12 00:18:10;;;;;;;11.40;3.38;;;10.40;99.90;;;;;;4952719;28;20023;-86
2021/05/12 00:20:36;;;;;;;8.10;3.47;;;10.40;99.90;;;;;;4953874;28;20023;-86
2021/05/12 00:23:08;;;;;;;8.32;2.80;;;10.40;99.90;;;;;;4954010;29;20027;-86
2021/05/12 00:25:34;;;;;;;9.15;3.20;;;10.50;99.90;;;;;;4953143;28;20523;-87
2021/05/12 00:27:59;;;;;;;9.35;3.00;;;10.50;99.90;;;;;;4949175;28;20067;-87
2021/05/12 00:30:26;;;;;;;8.02;2.67;;;10.40;99.90;;;;;;4934658;29;20028;-86
2021/05/12 00:32:52;;;;;;;7.95;2.53;;;10.40;99.90;;;;;;4949550;28;20027;-86
2021/05/12 00:35:18;;;;;;;11.80;2.50;;;10.40;99.90;;;;;;4934116;29;20032;-87
2021/05/12 00:37:43;;;;;;;8.23;2.75;;;10.40;99.90;;;;;;4944190;29;20031;-87
2021/05/12 00:40:11;;;;;;;10.15;2.92;;;10.50;99.90;;;;;;4953304;28;20557;-87
2021/05/12 00:42:37;;;;;;;11.15;3.40;;;10.50;99.90;;;;;;4953165;28;20082;-86
2021/05/12 00:45:05;;;;;;;5.75;2.53;;;10.50;99.90;;;;;;4951883;29;20416;-87
2021/05/12 00:47:32;;;;;;;13.10;2.80;;;10.50;99.90;;;;;;4948945;29;20062;-87
2021/05/12 00:49:58;;;;;;;6.15;2.58;;;10.50;99.90;;;;;;4949344;29;20031;-86
2021/05/12 00:52:24;;;;;;;10.85;2.78;;;10.50;99.90;;;;;;4934283;29;20071;-86
2021/05/12 00:54:52;;;;;;;7.63;2.70;;;10.50;99.90;;;;;;4936124;29;20031;-84
2021/05/12 00:57:18;;;;;;;4.60;2.55;;;10.50;99.90;;;;;;4953418;28;20023;-87
2021/05/12 00:59:45;;;;;;;6.43;2.55;;;10.60;99.90;;;;;;4951472;29;20110;-86
2021/05/12 01:02:10;;;;;;;20.25;2.92;;;10.50;99.90;;;;;;4951956;28;20024;-86
2021/05/12 01:04:37;;;;;;;7.57;2.40;;;10.50;99.90;;;;;;4952840;29;20042;-86
2021/05/12 01:07:04;;;;;;;5.25;2.33;;;10.50;99.90;;;;;;4953179;28;20030;-86
2021/05/12 01:09:29;;;;;;;6.40;2.58;;;10.60;99.90;;;;;;4953448;28;20513;-86
2021/05/12 01:11:55;;;;;;;10.18;2.80;;;10.40;99.90;;;;;;4948467;28;20080;-86
2021/05/12 01:14:21;;;;;;;7.05;2.80;;;10.40;99.90;;;;;;4933351;29;20028;-86
2021/05/12 01:16:47;;;;;;;8.07;2.92;;;10.40;99.90;;;;;;4951693;29;20080;-86
2021/05/12 01:19:13;;;;;;;6.53;2.80;;;10.40;99.90;;;;;;4951988;28;20028;-86
2021/05/12 01:21:39;;;;;;;6.57;2.55;;;10.40;99.90;;;;;;4951818;28;20107;-86
2021/05/12 01:24:05;;;;;;;9.32;3.15;;;10.40;99.90;;;;;;4951387;29;20053;-86
2021/05/12 01:26:31;;;;;;;12.25;2.90;;;10.40;99.90;;;;;;4948572;28;20031;-86
2021/05/12 01:28:56;;;;;;;11.52;2.95;;;10.40;99.90;;;;;;4933846;29;20028;-86
2021/05/12 01:31:34;;;;;;;14.73;2.67;;;10.40;99.90;;;;;;4950872;28;20118;-86
2021/05/12 01:34:02;;;;;;;10.35;3.00;;;10.40;99.90;;;;;;4952518;28;20031;-86
2021/05/12 01:36:28;;;;;;;5.93;3.40;;;10.40;99.90;;;;;;4953633;28;20027;-86
2021/05/12 01:38:55;;;;;;;17.17;2.97;;;10.40;99.90;;;;;;4953123;28;20028;-86
2021/05/12 01:41:23;;;;;;;11.15;2.92;;;10.40;99.90;;;;;;4951541;28;20034;-86
2021/05/12 01:43:50;;;;;;;7.72;3.03;;;10.40;99.90;;;;;;4950950;29;20094;-86
2021/05/12 01:46:15;;;;;;;11.32;3.55;;;10.40;99.90;;;;;;4951795;29;20106;-86
2021/05/12 01:48:42;;;;;;;9.75;3.17;;;10.40;99.90;;;;;;4953026;28;20102;-86
2021/05/12 01:51:09;;;;;;;7.47;2.95;;;10.40;99.90;;;;;;4952420;28;20396;-86
2021/05/12 01:53:35;;;;;;;5.88;2.88;;;10.40;99.90;;;;;;4952186;28;20404;-86
2021/05/12 01:56:01;;;;;;;9.23;3.38;;;10.40;99.90;;;;;;4955794;28;20031;-86
2021/05/12 01:58:27;;;;;;;9.30;3.13;;;10.30;99.90;;;;;;4954727;28;20074;-86
2021/05/12 02:00:54;;;;;;;12.38;3.35;;;10.40;99.90;;;;;;4956087;29;20023;-86
2021/05/12 02:03:20;;;;;;;7.60;3.25;;;10.30;99.90;;;;;;4954955;29;20031;-86
2021/05/12 02:05:47;;;;;;;12.10;3.30;;;10.30;99.90;;;;;;4955260;28;20031;-84
2021/05/12 02:08:14;;;;;;;9.02;3.50;;;10.40;99.90;;;;;;4956205;29;20078;-86
2021/05/12 02:10:43;;;;;;;13.82;3.10;;;10.40;99.90;;;;;;4951644;29;20056;-86
2021/05/12 02:13:10;;;;;;;9.77;2.72;;;10.40;99.90;;;;;;4951594;28;20040;-86
2021/05/12 02:15:36;;;;;;;11.13;3.58;;;10.40;99.90;;;;;;4951138;28;20032;-86
2021/05/12 02:18:02;;;;;;;11.35;2.88;;;10.40;99.90;;;;;;4936581;29;20048;-86
2021/05/12 02:20:31;;;;;;;15.40;3.50;;;10.40;99.90;;;;;;4940154;28;20015;-86
2021/05/12 02:23:01;;;;;;;6.18;3.10;;;10.40;99.90;;;;;;4955590;28;20507;-86
2021/05/12 02:25:27;;;;;;;6.65;3.15;;;10.40;99.90;;;;;;4953649;29;20027;-86
2021/05/12 02:27:53;;;;;;;13.27;3.10;;;10.40;99.90;;;;;;4954445;29;20034;-86
2021/05/12 02:30:19;;;;;;;11.18;3.22;;;10.40;99.90;;;;;;4955791;28;20063;-87
2021/05/12 02:32:45;;;;;;;8.23;3.15;;;10.40;99.90;;;;;;4955872;28;20046;-86
2021/05/12 02:35:12;;;;;;;9.57;3.13;;;10.40;99.90;;;;;;4953744;29;20027;-86
2021/05/12 02:37:38;;;;;;;16.38;3.53;;;10.40;99.90;;;;;;4954415;29;20027;-86
2021/05/12 02:40:06;;;;;;;10.70;3.63;;;10.40;99.90;;;;;;4955158;28;20396;-86
2021/05/12 02:42:32;;;;;;;14.63;3.80;;;10.40;99.90;;;;;;4955396;28;20042;-86
2021/05/12 02:44:58;;;;;;;8.95;3.25;;;10.30;99.90;;;;;;4953423;28;20023;-86
2021/05/12 02:47:24;;;;;;;8.65;3.10;;;10.30;99.90;;;;;;4954214;28;20023;-86
2021/05/12 02:49:49;;;;;;;8.90;3.78;;;10.30;99.90;;;;;;4954247;28;20035;-86
2021/05/12 02:52:15;;;;;;;9.98;3.88;;;10.40;99.90;;;;;;4954832;28;20047;-86
2021/05/12 02:54:41;;;;;;;12.38;3.40;;;10.40;99.90;;;;;;4952793;29;20492;-86
2021/05/12 02:57:07;;;;;;;7.60;3.75;;;10.40;99.90;;;;;;4954213;29;20038;-87
2021/05/12 02:59:32;;;;;;;12.85;3.97;;;10.40;99.90;;;;;;4955311;29;20023;-86
2021/05/12 03:01:58;;;;;;;17.05;4.05;;;10.30;99.90;;;;;;4950613;28;20035;-86
2021/05/12 03:04:23;;;;;;;17.02;4.03;;;10.40;99.90;;;;;;4958862;28;20027;-86
2021/05/12 03:06:49;;;;;;;11.45;3.45;;;10.40;99.90;;;;;;4955198;29;20031;-87
2021/05/12 03:09:15;;;;;;;10.75;3.72;;;10.40;99.90;;;;;;4953915;29;20027;-86
2021/05/12 03:11:40;;;;;;;11.70;4.05;;;10.40;99.90;;;;;;4950368;28;20043;-86
2021/05/12 03:14:08;;;;;;;20.92;3.20;;;10.40;99.90;;;;;;4935277;29;20102;-85
2021/05/12 03:16:34;;;;;;;7.28;3.13;;;10.30;99.90;;;;;;4950530;28;20028;-87
2021/05/12 03:19:00;;;;;;;8.90;3.35;;;10.40;99.90;;;;;;4935655;29;20054;-86
2021/05/12 03:21:26;;;;;;;9.57;3.58;;;10.30;99.90;;;;;;4953158;29;20019;-87
2021/05/12 03:23:51;;;;;;;9.68;4.10;;;10.30;99.90;;;;;;4954207;28;20117;-87
2021/05/12 03:26:17;;;;;;;12.27;4.40;;;10.30;99.90;;;;;;4953475;28;20072;-87
2021/05/12 03:28:44;;;;;;;8.63;4.05;;;10.30;99.90;;;;;;4954812;28;20059;-86
2021/05/12 03:31:11;;;;;;;26.58;12.30;;;10.30;99.90;;;;;;4954496;28;20039;-87
2021/05/12 03:33:37;;;;;;;15.43;4.97;;;10.30;99.90;;;;;;4954531;28;20039;-87
2021/05/12 03:36:04;;;;;;;8.88;4.13;;;10.30;99.90;;;;;;4954043;28;20578;-87
2021/05/12 03:38:30;;;;;;;12.05;4.53;;;10.30;99.90;;;;;;4954577;28;20028;-87
2021/05/12 03:40:56;;;;;;;15.02;5.38;;;10.30;99.90;;;;;;4952670;29;20023;-87
2021/05/12 03:43:21;;;;;;;7.80;4.22;;;10.30;99.90;;;;;;4953481;28;20030;-87
2021/05/12 03:45:47;;;;;;;14.77;4.97;;;10.30;99.90;;;;;;4952712;28;20106;-85
2021/05/12 03:48:12;;;;;;;14.60;4.35;;;10.40;99.90;;;;;;4954401;29;20168;-87
2021/05/12 03:50:38;;;;;;;12.63;4.50;;;10.30;99.90;;;;;;4954171;28;20470;-86
2021/05/12 03:53:05;;;;;;;18.38;5.43;;;10.30;99.90;;;;;;4952995;29;20626;-87
2021/05/12 03:55:30;;;;;;;11.10;4.32;;;10.30;99.90;;;;;;4952211;29;20098;-87
2021/05/12 03:57:56;;;;;;;9.27;5.45;;;10.30;99.90;;;;;;4952984;28;20488;-86
2021/05/12 04:00:22;;;;;;;15.80;5.38;;;10.30;99.90;;;;;;4952793;28;20034;-86
2021/05/12 04:02:47;;;;;;;18.17;6.35;;;10.30;99.90;;;;;;4953003;29;20388;-86
2021/05/12 04:05:14;;;;;;;21.35;6.05;;;10.30;99.90;;;;;;4952291;29;20027;-86
2021/05/12 04:07:40;;;;;;;20.42;7.20;;;10.30;99.90;;;;;;4954260;28;20030;-86
2021/05/12 04:10:08;;;;;;;12.43;5.63;;;10.30;99.90;;;;;;4952646;29;20027;-86
2021/05/12 04:12:33;;;;;;;19.58;5.72;;;10.30;99.90;;;;;;4954109;28;20031;-86
2021/05/12 04:14:59;;;;;;;10.43;5.35;;;10.30;99.90;;;;;;4952165;29;20027;-86
2021/05/12 04:17:26;;;;;;;13.70;5.05;;;10.30;99.90;;;;;;4952024;28;20130;-86
2021/05/12 04:19:52;;;;;;;16.08;6.15;;;10.30;99.90;;;;;;4953882;28;20035;-86
2021/05/12 04:22:18;;;;;;;18.08;4.93;;;10.30;99.90;;;;;;4952082;28;20043;-86
2021/05/12 04:24:43;;;;;;;12.10;4.78;;;10.30;99.90;;;;;;4951789;28;20119;-86
2021/05/12 04:27:09;;;;;;;11.90;5.32;;;10.30;99.90;;;;;;4952773;29;20023;-86
2021/05/12 04:29:36;;;;;;;16.27;6.32;;;10.30;99.90;;;;;;4953826;29;20031;-86
2021/05/12 04:32:02;;;;;;;14.70;5.88;;;10.40;99.90;;;;;;4948856;29;20039;-86
2021/05/12 04:34:28;;;;;;;23.08;6.95;;;10.40;99.90;;;;;;4934115;29;20027;-86
2021/05/12 04:36:54;;;;;;;19.40;6.53;;;10.30;99.90;;;;;;4934702;29;20043;-86
2021/05/12 04:39:19;;;;;;;17.67;7.15;;;10.40;99.90;;;;;;4934573;29;20036;-86
2021/05/12 04:41:45;;;;;;;11.95;6.13;;;10.40;99.90;;;;;;4951615;28;20118;-86
2021/05/12 04:44:10;;;;;;;19.83;7.30;;;10.40;99.90;;;;;;4952110;29;20019;-86
2021/05/12 04:46:36;;;;;;;20.73;7.82;;;10.40;99.90;;;;;;4953723;29;20031;-86
2021/05/12 04:49:05;;;;;;;19.42;7.75;;;10.50;99.90;;;;;;4952317;28;20032;-86
2021/05/12 04:51:33;;;;;;;19.33;8.10;;;10.50;99.90;;;;;;4952343;29;20039;-86
2021/05/12 04:53:59;;;;;;;20.67;9.77;;;10.60;99.90;;;;;;4951558;29;20492;-85
2021/05/12 04:56:24;;;;;;;19.55;9.38;;;10.60;99.90;;;;;;4948748;29;20039;-85
2021/05/12 04:58:52;;;;;;;31.23;10.10;;;10.60;99.90;;;;;;4948978;29;20036;-85
2021/05/12 05:01:17;;;;;;;17.45;9.70;;;10.60;99.90;;;;;;4942151;28;20023;-85
2021/05/12 05:03:43;;;;;;;18.02;10.80;;;10.70;99.90;;;;;;4951483;28;20035;-85
2021/05/12 05:06:09;;;;;;;19.50;10.57;;;10.70;99.90;;;;;;4952155;28;20086;-84
2021/05/12 05:08:35;;;;;;;22.42;11.50;;;10.80;99.90;;;;;;4952243;28;20029;-85
2021/05/12 05:11:00;;;;;;;34.75;12.65;;;10.80;99.90;;;;;;4950293;28;20032;-85
2021/05/12 05:13:26;;;;;;;29.35;11.70;;;10.80;99.90;;;;;;4953358;29;20391;-85
2021/05/12 05:15:52;;;;;;;19.35;11.55;;;10.90;99.90;;;;;;4952632;29;20110;-85
2021/05/12 05:18:17;;;;;;;27.35;11.45;;;10.90;99.90;;;;;;4953057;29;20485;-85
2021/05/12 05:20:43;;;;;;;25.55;11.52;;;11.00;99.90;;;;;;4951954;28;20617;-84
2021/05/12 05:23:08;;;;;;;27.45;12.45;;;11.00;99.90;;;;;;4948542;29;20398;-84
2021/05/12 05:25:34;;;;;;;29.52;11.77;;;11.00;99.90;;;;;;4939773;29;20024;-85
2021/05/12 05:28:00;;;;;;;22.95;11.30;;;11.00;99.90;;;;;;4954334;28;20051;-85
2021/05/12 05:30:26;;;;;;;25.90;11.60;;;11.00;99.90;;;;;;4956555;28;20034;-85
2021/05/12 05:32:58;;;;;;;35.20;12.90;;;11.10;99.90;;;;;;4956430;29;20039;-85
2021/05/12 05:35:24;;;;;;;31.00;12.20;;;11.20;99.90;;;;;;4956191;28;20115;-85
2021/05/12 05:37:49;;;;;;;29.45;12.80;;;11.20;99.90;;;;;;4955463;29;20504;-85
2021/05/12 05:40:15;;;;;;;36.10;13.13;;;11.20;99.90;;;;;;4956282;29;20027;-85
2021/05/12 05:42:41;;;;;;;31.10;13.50;;;11.20;99.90;;;;;;4955209;28;20028;-85
2021/05/12 05:45:07;;;;;;;36.13;14.05;;;11.30;99.90;;;;;;4954662;29;20502;-84
2021/05/12 05:47:33;;;;;;;51.05;14.95;;;11.30;99.90;;;;;;4956360;29;20514;-85
2021/05/12 05:49:58;;;;;;;46.60;16.08;;;11.30;99.90;;;;;;4956357;28;20031;-85
2021/05/12 05:52:24;;;;;;;39.90;17.10;;;11.30;99.90;;;;;;4955091;28;20034;-85
2021/05/12 05:54:49;;;;;;;28.27;14.95;;;11.40;99.90;;;;;;4955385;29;20035;-85
2021/05/12 05:57:15;;;;;;;47.97;16.38;;;11.50;99.90;;;;;;4956265;28;20034;-84
2021/05/12 05:59:41;;;;;;;33.45;15.85;;;11.50;99.90;;;;;;4954957;28;20146;-85
2021/05/12 06:02:08;;;;;;;36.13;16.00;;;11.50;99.90;;;;;;4952747;28;20042;-84
2021/05/12 06:04:33;;;;;;;38.55;16.40;;;11.50;99.90;;;;;;4953661;28;20028;-84
2021/05/12 06:06:59;;;;;;;51.17;17.42;;;11.60;99.90;;;;;;4956078;29;20026;-84
2021/05/12 06:09:25;;;;;;;47.42;15.55;;;11.50;99.90;;;;;;4954877;29;20124;-84
2021/05/12 06:11:52;;;;;;;30.33;15.57;;;11.60;99.90;;;;;;4955606;29;20480;-85
2021/05/12 06:14:19;;;;;;;41.58;15.32;;;11.60;99.90;;;;;;4954699;28;20503;-84
2021/05/12 06:16:45;;;;;;;34.03;15.70;;;11.60;99.90;;;;;;4955816;28;20050;-85
2021/05/12 06:19:10;;;;;;;44.47;16.23;;;11.60;99.90;;;;;;4954687;29;20480;-85
2021/05/12 06:21:36;;;;;;;37.42;15.88;;;11.70;99.90;;;;;;4951000;28;20035;-85
2021/05/12 06:24:02;;;;;;;36.58;14.70;;;11.70;99.90;;;;;;4935971;29;20039;-85
2021/05/12 06:26:27;;;;;;;38.15;15.60;;;11.80;99.90;;;;;;4951080;29;20036;-85
2021/05/12 06:28:53;;;;;;;36.75;14.65;;;11.80;99.90;;;;;;4955652;28;20488;-85
2021/05/12 06:31:18;;;;;;;39.22;15.18;;;11.90;99.90;;;;;;4955015;28;20035;-84
2021/05/12 06:33:46;;;;;;;37.30;13.93;;;12.00;99.90;;;;;;4953641;29;20036;-84
2021/05/12 06:36:12;;;;;;;46.47;14.23;;;11.90;99.90;;;;;;4955263;28;20051;-85
2021/05/12 06:38:38;;;;;;;34.72;13.55;;;12.00;99.90;;;;;;4955242;28;20070;-84
2021/05/12 06:41:04;;;;;;;38.15;13.38;;;12.00;99.90;;;;;;4954292;28;20485;-84
2021/05/12 06:43:29;;;;;;;33.55;12.73;;;12.00;99.90;;;;;;4955318;28;20031;-84
2021/05/12 06:45:55;;;;;;;31.55;13.57;;;12.00;99.90;;;;;;4953450;29;20122;-85
2021/05/12 06:48:21;;;;;;;35.00;12.32;;;12.10;99.90;;;;;;4954111;29;20127;-85
2021/05/12 06:50:47;;;;;;;34.50;12.57;;;12.10;99.90;;;;;;4954990;29;20031;-84
2021/05/12 06:53:13;;;;;;;38.33;13.13;;;12.20;99.90;;;;;;4953991;29;20055;-85
2021/05/12 06:55:39;;;;;;;34.05;12.32;;;12.20;99.90;;;;;;4954231;28;20082;-85
2021/05/12 06:58:07;;;;;;;42.10;13.40;;;12.30;99.90;;;;;;4953798;29;20027;-84
2021/05/12 07:00:34;;;;;;;40.38;13.77;;;12.30;99.90;;;;;;4954601;28;20033;-84
2021/05/12 07:02:59;;;;;;;34.58;13.05;;;12.30;99.90;;;;;;4955179;28;20027;-85
2021/05/12 07:05:25;;;;;;;29.67;12.02;;;12.40;99.90;;;;;;4954391;28;20015;-84
2021/05/12 07:07:51;;;;;;;36.53;11.70;;;12.40;99.90;;;;;;4955146;29;20024;-85
2021/05/12 07:10:17;;;;;;;36.42;14.40;;;12.50;99.90;;;;;;4950260;29;20031;-86
2021/05/12 07:12:43;;;;;;;35.30;12.77;;;12.50;99.90;;;;;;4935829;29;20035;-85
2021/05/12 07:15:10;;;;;;;33.88;18.75;;;12.60;99.90;;;;;;4933919;29;20028;-85
2021/05/12 07:17:36;;;;;;;49.10;23.38;;;12.70;99.90;;;;;;4935906;29;20039;-86
2021/05/12 07:20:03;;;;;;;43.45;13.57;;;12.70;99.90;;;;;;4935815;29;20024;-85
2021/05/12 07:22:28;;;;;;;31.35;9.18;;;12.80;99.90;;;;;;4953496;28;20031;-86
2021/05/12 07:24:54;;;;;;;40.15;12.20;;;12.90;99.90;;;;;;4952564;29;20074;-86
2021/05/12 07:27:22;;;;;;;31.35;9.50;;;13.00;99.90;;;;;;4953432;28;20031;-84
2021/05/12 07:29:48;;;;;;;26.10;7.53;;;13.00;99.90;;;;;;4954590;28;20027;-85
2021/05/12 07:32:13;;;;;;;28.10;7.53;;;13.00;99.90;;;;;;4953870;28;20086;-86
2021/05/12 07:34:39;;;;;;;30.20;7.38;;;13.00;99.90;;;;;;4951922;29;20027;-86
2021/05/12 07:37:06;;;;;;;23.90;7.18;;;13.10;99.90;;;;;;4954358;29;20023;-86
2021/05/12 07:39:32;;;;;;;23.95;7.43;;;13.20;99.90;;;;;;4969412;28;20396;-86
2021/05/12 07:42:01;;;;;;;17.60;6.57;;;13.40;99.90;;;;;;4952750;28;20023;-85
2021/05/12 07:44:27;;;;;;;26.95;7.10;;;13.60;99.90;;;;;;4952456;29;20130;-85
2021/05/12 07:46:53;;;;;;;23.98;6.95;;;13.70;99.90;;;;;;4969146;28;20488;-86
2021/05/12 07:49:19;;;;;;;26.92;6.45;;;13.80;99.90;;;;;;4954375;28;20063;-85
2021/05/12 07:51:44;;;;;;;22.50;5.22;;;13.80;99.90;;;;;;4954194;28;20027;-85
2021/05/12 07:54:10;;;;;;;22.92;6.60;;;14.00;99.90;;;;;;4968245;28;20510;-86
2021/05/12 07:56:36;;;;;;;23.70;5.43;;;14.00;99.90;;;;;;4952667;29;20081;-86
2021/05/12 07:59:01;;;;;;;26.67;7.22;;;14.10;99.90;;;;;;4949745;29;20032;-85
2021/05/12 08:01:31;;;;;;;21.67;5.60;;;14.20;99.90;;;;;;4949666;28;20112;-85
2021/05/12 08:03:56;;;;;;;22.02;6.20;;;14.40;99.90;;;;;;4944388;29;20110;-86
2021/05/12 08:06:22;;;;;;;23.73;4.97;;;14.40;99.90;;;;;;4938287;29;20119;-85
2021/05/12 08:08:47;;;;;;;16.95;5.47;;;14.50;99.90;;;;;;4933584;29;20031;-85
2021/05/12 08:11:13;;;;;;;23.70;5.85;;;14.70;99.90;;;;;;4933233;29;20035;-86
2021/05/12 08:13:39;;;;;;;23.42;5.78;;;14.90;99.90;;;;;;4933094;29;20032;-86
2021/05/12 08:16:04;;;;;;;25.25;6.82;;;14.90;99.90;;;;;;4945778;29;20507;-87
2021/05/12 08:18:30;;;;;;;21.33;5.90;;;14.80;99.90;;;;;;4968770;28;20035;-87
2021/05/12 08:20:57;;;;;;;20.02;6.53;;;14.80;99.90;;;;;;4968797;28;20465;-86
2021/05/12 08:23:23;;;;;;;20.20;6.45;;;14.70;99.90;;;;;;4953851;28;20440;-86
2021/05/12 08:25:50;;;;;;;31.63;6.55;;;14.60;99.90;;;;;;4952933;29;20112;-86
2021/05/12 08:28:16;;;;;;;27.45;6.10;;;14.70;99.90;;;;;;4968865;28;20400;-86
2021/05/12 08:30:48;;;;;;;15.25;5.68;;;14.80;99.90;;;;;;4945682;28;20038;-86
2021/05/12 08:33:15;;;;;;;24.77;7.78;;;14.90;99.90;;;;;;4947145;29;20030;-85
2021/05/12 08:35:44;;;;;;;21.67;5.95;;;15.00;99.90;;;;;;4946444;29;20031;-85
2021/05/12 08:38:13;;;;;;;27.05;6.53;;;15.00;99.90;;;;;;4948257;28;20031;-85
2021/05/12 08:40:42;;;;;;;25.02;6.38;;;15.20;99.90;;;;;;4947253;28;20118;-84
2021/05/12 08:43:08;;;;;;;21.90;6.28;;;15.20;99.90;;;;;;4948575;29;20023;-85
2021/05/12 08:45:34;;;;;;;25.20;5.97;;;15.30;99.90;;;;;;4946743;29;20466;-84
2021/05/12 08:48:04;;;;;;;14.25;5.18;;;15.20;99.90;;;;;;4948151;29;20043;-86
2021/05/12 08:50:30;;;;;;;20.55;5.70;;;15.10;99.90;;;;;;4948900;28;20035;-84
2021/05/12 08:52:57;;;;;;;20.80;5.97;;;15.10;99.90;;;;;;4947098;29;20089;-84
2021/05/12 08:55:22;;;;;;;23.15;6.22;;;15.10;99.90;;;;;;4947813;28;20032;-84
2021/05/12 08:57:48;;;;;;;21.80;6.53;;;15.10;99.90;;;;;;4946591;29;20201;-85
2021/05/12 09:00:14;;;;;;;16.75;6.60;;;15.00;99.90;;;;;;4948093;29;20453;-85
2021/05/12 09:02:40;;;;;;;20.00;6.15;;;15.00;99.90;;;;;;4948732;28;20039;-85
2021/05/12 09:05:07;;;;;;;19.10;5.72;;;15.00;99.90;;;;;;4951667;29;20028;-84
2021/05/12 09:07:33;;;;;;;21.05;5.50;;;14.90;99.90;;;;;;4952932;28;20023;-84
2021/05/12 09:10:00;;;;;;;21.48;5.88;;;15.10;99.90;;;;;;4954911;29;20663;-86
2021/05/12 09:12:27;;;;;;;15.13;5.05;;;15.10;99.90;;;;;;4965369;28;20054;-89
2021/05/12 09:14:56;;;;;;;20.80;5.97;;;15.30;99.90;;;;;;4955445;29;20050;-88
2021/05/12 09:17:32;;;;;;;16.50;5.57;;;15.60;99.90;;;;;;4972387;28;20146;-88
2021/05/12 09:19:58;;;;;;;24.85;8.15;;;15.90;99.90;;;;;;4956574;29;20027;-89
2021/05/12 09:22:24;;;;;;;23.00;6.38;;;15.80;99.90;;;;;;4956065;29;20027;-88
2021/05/12 09:25:05;;;;;;;25.63;8.02;;;15.90;99.90;;;;;;4955635;29;20027;-88
2021/05/12 09:27:30;;;;;;;19.55;5.68;;;16.00;99.90;;;;;;4968835;28;20038;-88
2021/05/12 09:30:00;;;;;;;19.25;5.47;;;16.00;99.90;;;;;;4957402;29;20102;-88
2021/05/12 09:32:43;;;;;;;22.52;7.25;;;16.00;99.90;;;;;;4955811;28;20043;-87
2021/05/12 09:35:09;;;;;;;25.50;7.93;;;15.90;99.90;;;;;;4955143;29;20451;-88
2021/05/12 09:37:39;;;;;;;20.02;7.30;;;15.70;99.90;;;;;;4952446;29;20035;-88
2021/05/12 09:40:09;;;;;;;20.52;7.13;;;15.70;99.90;;;;;;4937736;29;20424;-87
2021/05/12 09:42:36;;;;;;;19.17;6.40;;;15.70;99.90;;;;;;4955188;28;20062;-87
2021/05/12 09:45:14;;;;;;;23.52;6.90;;;15.60;99.90;;;;;;4954981;28;20027;-86
2021/05/12 09:47:41;;;;;;;23.73;5.88;;;15.70;99.90;;;;;;4956639;29;20436;-89
2021/05/12 09:50:16;;;;;;;29.58;7.45;;;15.70;99.90;;;;;;4955410;29;20035;-89
2021/05/12 09:52:42;;;;;;;17.42;5.88;;;15.60;99.90;;;;;;4955606;29;20082;-88
2021/05/12 09:55:10;;;;;;;19.23;7.65;;;15.90;99.90;;;;;;4954852;29;20037;-87
2021/05/12 09:57:37;;;;;;;26.80;7.45;;;16.00;99.90;;;;;;4956219;28;20459;-87
2021/05/12 10:00:24;;;;;;;25.83;8.73;;;16.00;99.90;;;;;;4955022;29;20041;-88
2021/05/12 10:02:50;;;;;;;22.58;7.47;;;16.00;99.90;;;;;;4955083;29;20027;-88
2021/05/12 10:05:17;;;;;;;18.05;6.72;;;15.90;99.90;;;;;;4954545;28;20038;-87
2021/05/12 10:07:51;;;;;;;21.95;7.25;;;16.20;99.90;;;;;;4951526;28;20132;-88
2021/05/12 10:10:37;;;;;;;20.67;7.70;;;16.20;99.90;;;;;;4951918;29;20034;-87
2021/05/12 10:13:03;;;;;;;19.80;7.32;;;16.00;99.90;;;;;;4937167;29;20039;-88
2021/05/12 10:15:29;;;;;;;24.85;7.63;;;15.70;99.90;;;;;;4934319;29;20580;-87
2021/05/12 10:17:55;;;;;;;21.67;7.82;;;15.60;99.90;;;;;;4950095;29;20114;-85
2021/05/12 10:20:21;;;;;;;21.77;7.57;;;15.80;99.90;;;;;;4954428;28;20069;-86
2021/05/12 10:22:47;;;;;;;18.48;7.15;;;15.70;99.90;;;;;;4954865;28;20027;-88
2021/05/12 10:25:13;;;;;;;19.30;7.50;;;15.70;99.90;;;;;;4955046;29;20024;-86
2021/05/12 10:27:40;;;;;;;22.00;8.63;;;15.60;99.90;;;;;;4953912;28;20031;-89
2021/05/12 10:30:07;;;;;;;17.98;8.02;;;15.40;99.90;;;;;;4955213;28;20059;-88
2021/05/12 10:32:35;;;;;;;19.20;7.78;;;15.20;99.90;;;;;;4951957;29;20042;-88
2021/05/12 10:35:08;;;;;;;21.23;8.80;;;15.10;99.90;;;;;;4936344;29;20032;-89
2021/05/12 10:37:42;;;;;;;15.07;7.68;;;15.20;99.90;;;;;;4936857;29;20024;-89
2021/05/12 10:40:25;;;;;;;17.55;7.22;;;15.30;99.90;;;;;;4936871;29;20478;-88
2021/05/12 10:45:49;;;;;;;20.42;7.18;;;15.10;99.90;;;;;;4950015;29;20387;-89
2021/05/12 10:48:51;;;;;;;15.68;6.93;;;15.50;99.90;;;;;;4956168;29;20019;-88
2021/05/12 10:51:19;;;;;;;15.90;7.22;;;15.30;99.90;;;;;;4915742;29;20115;-87
2021/05/12 10:53:48;;;;;;;14.73;6.93;;;15.40;99.90;;;;;;4959489;28;20062;-88
2021/05/12 10:56:15;;;;;;;14.10;4.63;;;15.70;99.90;;;;;;4970312;28;20122;-87
2021/05/12 10:58:57;;;;;;;12.68;5.32;;;15.70;99.90;;;;;;4955343;28;20062;-87
2021/05/12 11:01:25;;;;;;;15.95;5.15;;;15.80;99.90;;;;;;4955379;28;20079;-86
2021/05/12 11:03:50;;;;;;;11.27;4.68;;;15.70;99.90;;;;;;4953511;29;20408;-87
2021/05/12 11:06:17;;;;;;;8.75;3.40;;;15.50;99.90;;;;;;4954844;28;20028;-87
2021/05/12 11:09:01;;;;;;;12.27;4.28;;;15.50;99.90;;;;;;4969859;28;20078;-86
2021/05/12 11:11:27;;;;;;;10.23;3.63;;;15.50;99.90;;;;;;4953630;29;20055;-86
2021/05/12 11:14:19;;;;;;;9.00;3.95;;;15.30;99.90;;;;;;4954196;28;20058;-84
2021/05/12 11:17:03;;;;;;;8.57;3.28;;;15.40;99.90;;;;;;4953518;29;20522;-84
2021/05/12 11:20:02;;;;;;;14.80;3.92;;;15.90;99.90;;;;;;4953374;29;20034;-83
2021/05/12 11:22:37;;;;;;;7.57;2.55;;;16.10;99.90;;;;;;4950000;28;20023;-83
2021/05/12 11:33:25;;;;;;;12.90;3.30;;;15.70;99.90;;;;;;4936003;29;20082;-83
2021/05/12 11:35:58;;;;;;;14.88;4.55;;;15.80;99.90;;;;;;4951069;29;20046;-84
2021/05/12 11:38:24;;;;;;;11.45;4.25;;;15.80;99.90;;;;;;4954895;29;20031;-84
2021/05/12 11:41:17;;;;;;;11.88;4.28;;;16.00;99.90;;;;;;4953122;28;20040;-84
2021/05/12 11:44:03;;;;;;;10.30;4.15;;;15.90;99.90;;;;;;4948928;29;20110;-84
2021/05/12 11:46:29;;;;;;;14.93;4.68;;;15.70;99.90;;;;;;4935276;29;20480;-84
2021/05/12 11:49:04;;;;;;;17.13;5.97;;;15.60;99.90;;;;;;4935058;29;20039;-85
2021/05/12 11:51:42;;;;;;;17.27;5.18;;;15.40;99.90;;;;;;4935129;29;20027;-86
2021/05/12 11:54:21;;;;;;;15.98;4.57;;;15.40;99.90;;;;;;4956920;28;20440;-84
2021/05/12 11:56:50;;;;;;;15.48;5.75;;;15.40;99.90;;;;;;4954212;28;20066;-85
2021/05/12 11:59:23;;;;;;;17.60;4.78;;;15.50;99.90;;;;;;4951023;29;20037;-83
2021/05/12 12:02:03;;;;;;;18.55;6.47;;;15.60;99.90;;;;;;4953289;28;20114;-83
2021/05/12 12:04:38;;;;;;;13.05;5.70;;;15.80;99.90;;;;;;4948677;29;20031;-84
2021/05/12 12:07:05;;;;;;;15.15;5.50;;;15.60;99.90;;;;;;4934683;29;20027;-88
2021/05/12 12:09:31;;;;;;;9.07;3.20;;;15.50;99.90;;;;;;4965188;28;20451;-88
2021/05/12 12:11:59;;;;;;;7.78;3.72;;;15.40;99.90;;;;;;4949638;28;20035;-87
2021/05/12 12:14:37;;;;;;;8.85;4.13;;;15.30;99.90;;;;;;4952003;29;20039;-87
2021/05/12 12:17:10;;;;;;;9.75;3.45;;;15.60;99.90;;;;;;4954317;28;20031;-87
2021/05/12 12:19:36;;;;;;;10.60;3.22;;;16.40;99.90;;;;;;4952090;29;20516;-88
2021/05/12 12:22:02;;;;;;;21.77;5.07;;;16.40;99.90;;;;;;4952632;28;20042;-87
2021/05/12 12:24:29;;;;;;;14.90;5.13;;;16.40;99.90;;;;;;4952218;28;20058;-88
2021/05/12 12:26:58;;;;;;;16.23;4.95;;;16.30;99.90;;;;;;4953993;29;20027;-88
2021/05/12 12:29:28;;;;;;;11.20;4.72;;;16.40;99.90;;;;;;4953694;28;20110;-86
2021/05/12 12:32:00;;;;;;;16.92;5.28;;;16.30;99.90;;;;;;4953267;29;20031;-86
2021/05/12 12:34:30;;;;;;;12.65;5.00;;;16.40;99.90;;;;;;4953196;28;20062;-87
2021/05/12 12:37:15;;;;;;;16.63;7.07;;;16.40;99.90;;;;;;4953585;28;20023;-87
2021/05/12 12:39:52;;;;;;;15.82;5.65;;;17.20;99.90;;;;;;4948951;29;20063;-83
2021/05/12 12:42:28;;;;;;;14.82;5.03;;;17.30;99.90;;;;;;4934352;29;20128;-83
2021/05/12 12:44:56;;;;;;;13.60;5.18;;;17.80;99.90;;;;;;4951585;29;20417;-83
2021/05/12 12:47:23;;;;;;;13.43;6.32;;;18.10;99.90;;;;;;4953498;28;20102;-84
2021/05/12 12:50:05;;;;;;;19.27;5.43;;;18.50;99.90;;;;;;4948663;29;20038;-84